Time;durP1;ratioP1;P1;durP2;ratioP2;P2;SDS_P1;SDS_P2;PMS_P1;PMS_P2;Temp;Humidity;BMP_temperature;BMP_pressure;BME280_temperature;BME280_humidity;BME280_pressure;Samples;Min_cycle;Max_cycle;Signal;HPM_P1;HPM_P2
2022/10/27 00:00:20;;;;;;;0.10;0.10;;;;;;;;;;6168035;23;20009;-90
2022/10/27 00:02:47;;;;;;;0.10;0.10;;;;;;;;;;6217202;23;20008;-90
2022/10/27 00:05:13;;;;;;;0.10;0.10;;;;;;;;;;6217161;23;20062;-90
2022/10/27 00:07:39;;;;;;;0.10;0.10;;;;;;;;;;6168004;23;20020;-90
2022/10/27 00:10:05;;;;;;;0.10;0.10;;;;;;;;;;6167493;23;20088;-90
2022/10/27 00:12:32;;;;;;;0.10;0.10;;;;;;;;;;6192529;23;20012;-90
2022/10/27 00:14:57;;;;;;;0.10;0.10;;;;;;;;;;6216997;23;20445;-90
2022/10/27 00:17:23;;;;;;;0.10;0.10;;;;;;;;;;6167383;23;20016;-90
2022/10/27 00:19:49;;;;;;;0.15;0.15;;;;;;;;;;6192377;23;20047;-89
2022/10/27 00:22:16;;;;;;;0.10;0.10;;;;;;;;;;6168252;23;20013;-90
2022/10/27 00:24:42;;;;;;;0.10;0.10;;;;;;;;;;6216614;23;20071;-90
2022/10/27 00:27:11;;;;;;;0.10;0.10;;;;;;;;;;6192442;23;20016;-90
2022/10/27 00:29:37;;;;;;;0.10;0.10;;;;;;;;;;6218432;23;20050;-90
2022/10/27 00:32:03;;;;;;;0.10;0.10;;;;;;;;;;6169388;23;20012;-90
2022/10/27 00:34:29;;;;;;;0.10;0.10;;;;;;;;;;6169608;23;20079;-90
2022/10/27 00:36:56;;;;;;;0.10;0.10;;;;;;;;;;6169309;23;20016;-90
2022/10/27 00:39:21;;;;;;;0.10;0.10;;;;;;;;;;6169487;23;20012;-89
2022/10/27 00:41:47;;;;;;;0.10;0.10;;;;;;;;;;6194318;23;20039;-89
2022/10/27 00:44:32;;;;;;;0.10;0.10;;;;;;;;;;6169263;23;20012;-89
2022/10/27 00:46:59;;;;;;;0.10;0.10;;;;;;;;;;6219221;23;20012;-90
2022/10/27 00:49:30;;;;;;;0.10;0.10;;;;;;;;;;6194175;23;20012;-90
2022/10/27 00:51:57;;;;;;;0.10;0.10;;;;;;;;;;6194453;23;20070;-90
2022/10/27 00:54:23;;;;;;;0.10;0.10;;;;;;;;;;6169300;23;20071;-90
2022/10/27 00:56:50;;;;;;;0.10;0.10;;;;;;;;;;6169460;23;20016;-89
2022/10/27 00:59:15;;;;;;;0.10;0.10;;;;;;;;;;6169623;23;20307;-90
2022/10/27 01:01:41;;;;;;;0.10;0.10;;;;;;;;;;6169616;23;20023;-90
2022/10/27 01:04:09;;;;;;;0.10;0.10;;;;;;;;;;6169332;23;20319;-90
2022/10/27 01:06:35;;;;;;;0.10;0.10;;;;;;;;;;6169113;23;20102;-90
2022/10/27 01:09:01;;;;;;;0.20;0.20;;;;;;;;;;6169259;23;20026;-90
2022/10/27 01:11:27;;;;;;;0.10;0.10;;;;;;;;;;6168870;23;20457;-90
2022/10/27 01:13:53;;;;;;;0.10;0.10;;;;;;;;;;6169161;23;20022;-90
2022/10/27 01:16:38;;;;;;;0.20;0.20;;;;;;;;;;6169289;23;20016;-90
2022/10/27 01:19:22;;;;;;;1.35;0.20;;;;;;;;;;6218716;23;20399;-90
2022/10/27 01:21:49;;;;;;;0.10;0.10;;;;;;;;;;6219050;23;20012;-90
2022/10/27 01:24:15;;;;;;;0.10;0.10;;;;;;;;;;6244480;23;20423;-90
2022/10/27 01:26:43;;;;;;;0.10;0.10;;;;;;;;;;6219047;23;20019;-90
2022/10/27 01:29:09;;;;;;;0.10;0.10;;;;;;;;;;6169128;23;20008;-90
2022/10/27 01:31:36;;;;;;;0.10;0.10;;;;;;;;;;6218007;23;20130;-90
2022/10/27 01:34:09;;;;;;;0.10;0.10;;;;;;;;;;6193548;23;20054;-90
2022/10/27 01:36:36;;;;;;;0.10;0.10;;;;;;;;;;6218727;23;20330;-90
2022/10/27 01:39:02;;;;;;;0.10;0.10;;;;;;;;;;6194029;23;20070;-90
2022/10/27 01:41:33;;;;;;;0.10;0.10;;;;;;;;;;6218528;23;20012;-90
2022/10/27 01:44:01;;;;;;;0.10;0.10;;;;;;;;;;6193447;23;20012;-90
2022/10/27 01:46:27;;;;;;;0.10;0.10;;;;;;;;;;6193297;23;20019;-90
2022/10/27 01:48:53;;;;;;;0.10;0.10;;;;;;;;;;6193806;23;20012;-90
2022/10/27 01:51:19;;;;;;;0.10;0.10;;;;;;;;;;6218806;23;20012;-90
2022/10/27 01:53:46;;;;;;;0.10;0.10;;;;;;;;;;6193518;23;20034;-90
2022/10/27 01:56:12;;;;;;;0.30;0.30;;;;;;;;;;6218414;23;20335;-90
2022/10/27 01:58:38;;;;;;;0.10;0.10;;;;;;;;;;6218797;23;20142;-90
2022/10/27 02:01:16;;;;;;;0.10;0.10;;;;;;;;;;6218984;23;20453;-91
2022/10/27 02:03:45;;;;;;;0.10;0.10;;;;;;;;;;6218505;23;20051;-90
2022/10/27 02:06:21;;;;;;;0.10;0.10;;;;;;;;;;6218591;23;20008;-90
2022/10/27 02:08:50;;;;;;;0.10;0.10;;;;;;;;;;6193643;23;20031;-90
2022/10/27 02:11:16;;;;;;;0.10;0.10;;;;;;;;;;6219770;23;20019;-90
2022/10/27 02:13:43;;;;;;;0.20;0.20;;;;;;;;;;6222028;23;20011;-90
2022/10/27 02:16:11;;;;;;;0.10;0.10;;;;;;;;;;6200737;23;20019;-91
2022/10/27 02:18:38;;;;;;;0.10;0.10;;;;;;;;;;6200970;23;20101;-91
2022/10/27 02:21:05;;;;;;;0.10;0.10;;;;;;;;;;6193323;23;20381;-90
2022/10/27 02:23:31;;;;;;;0.10;0.10;;;;;;;;;;6194953;23;20012;-91
2022/10/27 02:25:58;;;;;;;0.20;0.20;;;;;;;;;;6199783;23;20096;-90
2022/10/27 02:28:35;;;;;;;0.10;0.10;;;;;;;;;;6200954;23;20012;-90
2022/10/27 02:31:01;;;;;;;0.10;0.10;;;;;;;;;;6193213;23;20099;-89
2022/10/27 02:33:27;;;;;;;0.10;0.10;;;;;;;;;;6193304;23;20047;-90
2022/10/27 02:35:54;;;;;;;0.10;0.10;;;;;;;;;;6242865;23;20035;-90
2022/10/27 02:38:20;;;;;;;0.10;0.10;;;;;;;;;;6193363;23;20401;-90
2022/10/27 02:40:46;;;;;;;0.10;0.10;;;;;;;;;;6193126;23;20016;-90
2022/10/27 02:43:12;;;;;;;0.10;0.10;;;;;;;;;;6193260;23;20394;-90
2022/10/27 02:45:38;;;;;;;0.10;0.10;;;;;;;;;;6193028;23;20019;-90
2022/10/27 02:48:04;;;;;;;0.20;0.20;;;;;;;;;;6218266;23;20008;-90
2022/10/27 02:50:30;;;;;;;0.10;0.10;;;;;;;;;;6180979;23;20008;-90
2022/10/27 02:52:56;;;;;;;0.10;0.10;;;;;;;;;;6193338;23;20107;-90
2022/10/27 02:55:22;;;;;;;0.10;0.10;;;;;;;;;;6193529;23;20434;-90
2022/10/27 02:57:48;;;;;;;0.10;0.10;;;;;;;;;;6192913;23;20020;-90
2022/10/27 03:00:14;;;;;;;0.85;0.85;;;;;;;;;;6192851;23;20019;-90
2022/10/27 03:02:40;;;;;;;0.10;0.10;;;;;;;;;;6192677;23;20468;-90
2022/10/27 03:05:06;;;;;;;0.10;0.10;;;;;;;;;;6192844;23;20016;-90
2022/10/27 03:07:32;;;;;;;0.10;0.10;;;;;;;;;;6217693;23;20389;-90
2022/10/27 03:09:58;;;;;;;0.15;0.15;;;;;;;;;;6192780;23;20515;-89
2022/10/27 03:12:25;;;;;;;0.10;0.10;;;;;;;;;;6193558;23;20513;-90
2022/10/27 03:14:51;;;;;;;0.10;0.10;;;;;;;;;;6192917;23;20395;-90
2022/10/27 03:17:19;;;;;;;0.10;0.10;;;;;;;;;;6192401;23;20016;-90
2022/10/27 03:19:45;;;;;;;0.10;0.10;;;;;;;;;;6192620;23;20450;-89
2022/10/27 03:22:11;;;;;;;0.10;0.10;;;;;;;;;;6192404;23;20023;-89
2022/10/27 03:24:37;;;;;;;0.10;0.10;;;;;;;;;;6192421;23;20373;-89
2022/10/27 03:27:03;;;;;;;0.10;0.10;;;;;;;;;;6217189;23;20390;-89
2022/10/27 03:29:29;;;;;;;0.10;0.10;;;;;;;;;;6192523;23;20008;-90
2022/10/27 03:31:55;;;;;;;0.20;0.20;;;;;;;;;;6217594;23;20019;-90
2022/10/27 03:34:21;;;;;;;0.10;0.10;;;;;;;;;;6192434;23;20442;-90
2022/10/27 03:36:47;;;;;;;0.20;0.20;;;;;;;;;;6192976;23;20247;-90
2022/10/27 03:39:13;;;;;;;0.10;0.10;;;;;;;;;;6192601;23;20086;-89
2022/10/27 03:41:39;;;;;;;0.10;0.10;;;;;;;;;;6217617;23;20453;-89
2022/10/27 03:44:05;;;;;;;0.10;0.10;;;;;;;;;;6192485;23;20022;-89
2022/10/27 03:46:31;;;;;;;0.20;0.20;;;;;;;;;;6192267;23;20027;-91
2022/10/27 03:48:57;;;;;;;0.10;0.10;;;;;;;;;;6192506;23;20008;-89
2022/10/27 03:51:23;;;;;;;0.10;0.10;;;;;;;;;;6217644;23;20087;-89
2022/10/27 03:53:49;;;;;;;0.10;0.10;;;;;;;;;;6192343;23;20016;-89
2022/10/27 03:56:15;;;;;;;0.10;0.10;;;;;;;;;;6192291;23;20476;-89
2022/10/27 03:58:41;;;;;;;0.10;0.10;;;;;;;;;;6192605;23;20091;-90
2022/10/27 04:01:07;;;;;;;0.10;0.10;;;;;;;;;;6192272;23;20441;-89
2022/10/27 04:03:33;;;;;;;0.10;0.10;;;;;;;;;;6218538;23;20039;-89
2022/10/27 04:05:59;;;;;;;0.10;0.10;;;;;;;;;;6219883;23;20367;-89
2022/10/27 04:08:25;;;;;;;0.10;0.10;;;;;;;;;;6219632;23;20020;-89
2022/10/27 04:10:51;;;;;;;0.10;0.10;;;;;;;;;;6219734;23;20041;-89
2022/10/27 04:13:17;;;;;;;0.10;0.10;;;;;;;;;;6194849;23;20009;-89
2022/10/27 04:15:43;;;;;;;0.10;0.10;;;;;;;;;;6219786;23;20047;-90
2022/10/27 04:18:09;;;;;;;0.10;0.10;;;;;;;;;;6194555;23;20012;-89
2022/10/27 04:20:35;;;;;;;0.10;0.10;;;;;;;;;;6194421;23;20012;-90
2022/10/27 04:23:01;;;;;;;0.10;0.10;;;;;;;;;;6194445;23;20089;-90
2022/10/27 04:25:27;;;;;;;0.10;0.10;;;;;;;;;;6219935;23;20009;-90
2022/10/27 04:28:03;;;;;;;0.10;0.10;;;;;;;;;;6194732;23;20095;-90
2022/10/27 04:30:29;;;;;;;0.10;0.10;;;;;;;;;;6195232;23;20009;-90
2022/10/27 04:32:55;;;;;;;0.10;0.10;;;;;;;;;;6195233;23;20008;-90
2022/10/27 04:35:22;;;;;;;0.20;0.20;;;;;;;;;;6189458;23;20021;-90
2022/10/27 04:37:48;;;;;;;0.10;0.10;;;;;;;;;;6214279;23;20405;-90
2022/10/27 04:40:14;;;;;;;0.10;0.10;;;;;;;;;;6190038;23;20401;-90
2022/10/27 04:42:46;;;;;;;0.10;0.10;;;;;;;;;;6140403;23;20477;-90
2022/10/27 04:45:13;;;;;;;0.10;0.10;;;;;;;;;;6140632;23;20484;-90
2022/10/27 04:47:39;;;;;;;0.10;0.10;;;;;;;;;;6140354;23;20048;-90
2022/10/27 04:50:05;;;;;;;0.20;0.20;;;;;;;;;;6140029;23;20079;-90
2022/10/27 04:52:31;;;;;;;0.10;0.10;;;;;;;;;;6140591;23;20008;-90
2022/10/27 04:54:57;;;;;;;0.10;0.10;;;;;;;;;;6140024;23;20087;-90
2022/10/27 04:57:23;;;;;;;0.10;0.10;;;;;;;;;;6140627;23;20341;-90
2022/10/27 04:59:49;;;;;;;0.20;0.20;;;;;;;;;;6140201;23;20016;-90
2022/10/27 05:02:15;;;;;;;0.10;0.10;;;;;;;;;;6139989;23;20017;-89
2022/10/27 05:04:41;;;;;;;0.10;0.10;;;;;;;;;;6164461;23;20039;-90
2022/10/27 05:07:07;;;;;;;0.10;0.10;;;;;;;;;;6139907;23;20104;-90
2022/10/27 05:09:33;;;;;;;0.10;0.10;;;;;;;;;;6140055;23;20013;-90
2022/10/27 05:11:59;;;;;;;0.30;0.30;;;;;;;;;;6140531;23;20012;-90
2022/10/27 05:14:25;;;;;;;1.05;1.05;;;;;;;;;;6139691;23;20074;-90
2022/10/27 05:16:51;;;;;;;0.20;0.20;;;;;;;;;;6164562;23;20454;-90
2022/10/27 05:19:17;;;;;;;0.20;0.20;;;;;;;;;;6164981;23;20016;-90
2022/10/27 05:21:43;;;;;;;0.20;0.20;;;;;;;;;;6140133;23;20017;-90
2022/10/27 05:24:10;;;;;;;0.10;0.10;;;;;;;;;;6139392;23;20346;-89
2022/10/27 05:26:36;;;;;;;0.30;0.30;;;;;;;;;;6164782;23;20083;-90
2022/10/27 05:29:02;;;;;;;0.45;0.30;;;;;;;;;;6140151;23;20446;-90
2022/10/27 05:31:28;;;;;;;0.20;0.20;;;;;;;;;;6140115;23;20051;-90
2022/10/27 05:33:54;;;;;;;0.10;0.10;;;;;;;;;;6151661;23;20074;-91
2022/10/27 05:36:20;;;;;;;0.10;0.10;;;;;;;;;;6194295;23;20027;-91
2022/10/27 05:38:54;;;;;;;0.20;0.20;;;;;;;;;;6169932;23;20016;-95
2022/10/27 05:41:20;;;;;;;0.20;0.20;;;;;;;;;;6194418;23;20012;-90
2022/10/27 05:43:45;;;;;;;0.10;0.10;;;;;;;;;;6169810;23;20023;-91
2022/10/27 05:46:11;;;;;;;0.10;0.10;;;;;;;;;;6169281;23;20066;-91
2022/10/27 05:48:37;;;;;;;0.10;0.10;;;;;;;;;;6169183;23;20047;-91
2022/10/27 05:51:03;;;;;;;0.30;0.30;;;;;;;;;;6169525;23;20015;-91
2022/10/27 05:53:30;;;;;;;0.13;0.13;;;;;;;;;;6169437;23;20023;-91
2022/10/27 05:55:59;;;;;;;0.10;0.10;;;;;;;;;;6193984;23;20012;-89
2022/10/27 05:58:25;;;;;;;0.10;0.10;;;;;;;;;;6219491;23;20095;-91
2022/10/27 06:00:51;;;;;;;0.10;0.10;;;;;;;;;;6169991;23;20074;-92
2022/10/27 06:03:21;;;;;;;0.10;0.10;;;;;;;;;;6170178;23;20012;-91
2022/10/27 06:05:47;;;;;;;0.10;0.10;;;;;;;;;;6169666;23;20009;-92
2022/10/27 06:08:13;;;;;;;0.10;0.10;;;;;;;;;;6169212;23;20050;-92
2022/10/27 06:10:39;;;;;;;0.10;0.10;;;;;;;;;;6170257;23;20050;-91
2022/10/27 06:13:06;;;;;;;0.20;0.20;;;;;;;;;;6168960;23;20012;-88
2022/10/27 06:15:32;;;;;;;0.10;0.10;;;;;;;;;;6193874;23;20341;-90
2022/10/27 06:17:58;;;;;;;0.10;0.10;;;;;;;;;;6168980;23;20070;-88
2022/10/27 06:20:24;;;;;;;0.10;0.10;;;;;;;;;;6218864;23;20429;-88
2022/10/27 06:22:50;;;;;;;0.10;0.10;;;;;;;;;;6168708;23;20012;-88
2022/10/27 06:25:17;;;;;;;0.10;0.10;;;;;;;;;;6193438;23;20012;-88
2022/10/27 06:27:43;;;;;;;0.20;0.20;;;;;;;;;;6193473;23;20452;-88
2022/10/27 06:30:09;;;;;;;0.10;0.10;;;;;;;;;;6193598;23;20016;-88
2022/10/27 06:32:38;;;;;;;0.10;0.10;;;;;;;;;;6168820;23;20015;-88
2022/10/27 06:35:04;;;;;;;0.10;0.10;;;;;;;;;;6193809;23;20016;-90
2022/10/27 06:37:30;;;;;;;0.10;0.10;;;;;;;;;;6169264;23;20397;-90
2022/10/27 06:39:56;;;;;;;0.10;0.10;;;;;;;;;;6170501;23;20016;-91
2022/10/27 06:42:23;;;;;;;0.10;0.10;;;;;;;;;;6169305;23;20047;-90
2022/10/27 06:44:49;;;;;;;0.10;0.10;;;;;;;;;;6168488;23;20016;-91
2022/10/27 06:47:15;;;;;;;0.10;0.10;;;;;;;;;;6168774;23;20453;-91
2022/10/27 06:49:41;;;;;;;0.10;0.10;;;;;;;;;;6168696;23;20009;-91
2022/10/27 06:52:07;;;;;;;0.20;0.20;;;;;;;;;;6193669;23;20390;-91
2022/10/27 06:54:33;;;;;;;0.10;0.10;;;;;;;;;;6193572;23;20087;-91
2022/10/27 06:56:59;;;;;;;0.10;0.10;;;;;;;;;;6168418;23;20026;-91
2022/10/27 06:59:25;;;;;;;0.10;0.10;;;;;;;;;;6168500;23;20027;-90
2022/10/27 07:01:51;;;;;;;0.10;0.10;;;;;;;;;;6193655;23;20016;-89
2022/10/27 07:04:17;;;;;;;0.10;0.10;;;;;;;;;;6241780;23;20023;-88
2022/10/27 07:06:43;;;;;;;0.38;0.38;;;;;;;;;;6168369;23;20012;-87
2022/10/27 07:09:10;;;;;;;0.20;0.20;;;;;;;;;;6192925;23;20477;-91
2022/10/27 07:11:36;;;;;;;0.63;0.63;;;;;;;;;;6193454;23;20086;-90
2022/10/27 07:14:02;;;;;;;0.10;0.10;;;;;;;;;;6193072;23;20016;-90
2022/10/27 07:16:28;;;;;;;0.10;0.10;;;;;;;;;;6168333;23;20034;-89
2022/10/27 07:18:54;;;;;;;0.10;0.10;;;;;;;;;;6168272;23;20016;-88
2022/10/27 07:21:20;;;;;;;0.10;0.10;;;;;;;;;;6168216;23;20373;-87
2022/10/27 07:23:46;;;;;;;0.10;0.10;;;;;;;;;;6243105;23;20016;-87
2022/10/27 07:26:12;;;;;;;0.20;0.20;;;;;;;;;;6192825;23;20019;-87
2022/10/27 07:28:37;;;;;;;0.10;0.10;;;;;;;;;;6193130;23;20090;-88
2022/10/27 07:31:03;;;;;;;0.20;0.20;;;;;;;;;;6243376;23;20039;-88
2022/10/27 07:33:29;;;;;;;0.10;0.10;;;;;;;;;;6217504;23;20099;-89
2022/10/27 07:35:55;;;;;;;0.10;0.10;;;;;;;;;;6193034;23;20016;-90
2022/10/27 07:38:21;;;;;;;0.10;0.10;;;;;;;;;;6192708;23;20109;-89
2022/10/27 07:40:49;;;;;;;0.17;0.17;;;;;;;;;;6192990;23;20457;-89
2022/10/27 07:43:14;;;;;;;0.10;0.10;;;;;;;;;;6167764;23;20467;-90
2022/10/27 07:45:41;;;;;;;0.10;0.10;;;;;;;;;;6192723;23;20031;-90
2022/10/27 07:48:09;;;;;;;0.20;0.20;;;;;;;;;;6168541;23;20012;-88
2022/10/27 07:50:34;;;;;;;0.10;0.10;;;;;;;;;;6193041;23;20012;-89
2022/10/27 07:53:00;;;;;;;0.10;0.10;;;;;;;;;;6243192;23;20027;-88
2022/10/27 07:55:27;;;;;;;0.10;0.10;;;;;;;;;;6192729;23;20091;-88
2022/10/27 07:58:06;;;;;;;0.10;0.10;;;;;;;;;;6192719;23;20066;-88
2022/10/27 08:00:32;;;;;;;0.10;0.10;;;;;;;;;;6167648;23;20094;-88
2022/10/27 08:02:59;;;;;;;0.10;0.10;;;;;;;;;;6192242;23;20381;-87
2022/10/27 08:05:25;;;;;;;0.20;0.20;;;;;;;;;;6167290;23;20027;-88
2022/10/27 08:07:51;;;;;;;0.10;0.10;;;;;;;;;;6192395;23;20346;-88
2022/10/27 08:10:17;;;;;;;0.10;0.10;;;;;;;;;;6242289;23;20019;-88
2022/10/27 08:12:43;;;;;;;0.10;0.10;;;;;;;;;;6167927;23;20092;-88
2022/10/27 08:15:09;;;;;;;0.20;0.20;;;;;;;;;;6192944;23;20066;-87
2022/10/27 08:17:35;;;;;;;0.10;0.10;;;;;;;;;;6192276;23;20095;-87
2022/10/27 08:20:01;;;;;;;0.10;0.10;;;;;;;;;;6192503;23;20052;-86
2022/10/27 08:22:27;;;;;;;0.70;0.20;;;;;;;;;;6192443;23;20024;-87
2022/10/27 08:24:53;;;;;;;0.10;0.10;;;;;;;;;;6192285;23;20020;-87
2022/10/27 08:27:20;;;;;;;0.10;0.10;;;;;;;;;;6192534;23;20043;-88
2022/10/27 08:29:46;;;;;;;0.20;0.20;;;;;;;;;;6167882;23;20038;-87
2022/10/27 08:32:11;;;;;;;0.40;0.40;;;;;;;;;;6167922;23;20087;-88
2022/10/27 08:34:37;;;;;;;1.55;0.25;;;;;;;;;;6192554;23;20346;-87
2022/10/27 08:37:03;;;;;;;0.10;0.10;;;;;;;;;;6217282;23;20019;-88
2022/10/27 08:39:29;;;;;;;0.10;0.10;;;;;;;;;;6192490;23;20030;-88
2022/10/27 08:41:57;;;;;;;0.10;0.10;;;;;;;;;;6192593;23;20020;-88
2022/10/27 08:44:34;;;;;;;0.20;0.20;;;;;;;;;;6192563;23;20184;-89
2022/10/27 08:47:03;;;;;;;0.10;0.10;;;;;;;;;;6192442;23;20014;-88
2022/10/27 08:49:33;;;;;;;0.30;0.30;;;;;;;;;;6217238;23;20008;-89
2022/10/27 08:52:02;;;;;;;0.10;0.10;;;;;;;;;;6169585;23;20012;-89
2022/10/27 08:54:28;;;;;;;0.10;0.10;;;;;;;;;;6192638;23;20020;-88
2022/10/27 08:56:56;;;;;;;0.10;0.10;;;;;;;;;;6219258;23;20018;-88
2022/10/27 08:59:22;;;;;;;0.10;0.10;;;;;;;;;;6192883;23;20019;-89
2022/10/27 09:01:55;;;;;;;0.10;0.10;;;;;;;;;;6194306;23;20520;-87
2022/10/27 09:04:43;;;;;;;0.32;0.25;;;;;;;;;;6194199;23;20016;-91
2022/10/27 09:07:15;;;;;;;0.10;0.10;;;;;;;;;;6193905;23;20023;-87
2022/10/27 09:09:54;;;;;;;0.15;0.15;;;;;;;;;;6194369;23;20467;-89
2022/10/27 09:12:36;;;;;;;0.10;0.10;;;;;;;;;;6194387;23;20012;-89
2022/10/27 09:15:02;;;;;;;0.22;0.22;;;;;;;;;;6194430;23;20023;-88
2022/10/27 09:17:29;;;;;;;0.10;0.10;;;;;;;;;;6219102;23;20020;-89
2022/10/27 09:20:00;;;;;;;0.38;0.38;;;;;;;;;;6194463;23;20016;-86
2022/10/27 09:22:26;;;;;;;0.10;0.10;;;;;;;;;;6170043;23;20016;-88
2022/10/27 09:25:04;;;;;;;0.10;0.10;;;;;;;;;;6194182;23;20091;-90
2022/10/27 09:27:30;;;;;;;0.17;0.17;;;;;;;;;;6194525;23;20395;-91
2022/10/27 09:29:58;;;;;;;0.10;0.10;;;;;;;;;;6194116;23;20040;-87
2022/10/27 09:32:25;;;;;;;0.10;0.10;;;;;;;;;;6169669;23;20026;-90
2022/10/27 09:35:01;;;;;;;0.10;0.10;;;;;;;;;;6169311;23;20020;-89
2022/10/27 09:37:28;;;;;;;0.10;0.10;;;;;;;;;;6194895;23;20012;-89
2022/10/27 09:39:56;;;;;;;0.10;0.10;;;;;;;;;;6194178;23;20019;-90
2022/10/27 09:42:22;;;;;;;0.10;0.10;;;;;;;;;;6194590;23;20023;-88
2022/10/27 09:44:52;;;;;;;0.10;0.10;;;;;;;;;;6169375;23;20095;-89
2022/10/27 09:47:18;;;;;;;0.10;0.10;;;;;;;;;;6219611;23;20469;-88
2022/10/27 09:49:45;;;;;;;0.10;0.10;;;;;;;;;;6170033;23;20012;-88
2022/10/27 09:52:23;;;;;;;0.20;0.20;;;;;;;;;;6194486;23;20058;-89
2022/10/27 09:54:52;;;;;;;0.10;0.10;;;;;;;;;;6169728;23;20023;-88
2022/10/27 09:57:19;;;;;;;0.10;0.10;;;;;;;;;;6169639;23;20411;-88
2022/10/27 10:00:01;;;;;;;0.10;0.10;;;;;;;;;;6169704;23;20012;-89
2022/10/27 10:02:34;;;;;;;0.10;0.10;;;;;;;;;;6245997;23;20016;-88
2022/10/27 10:05:00;;;;;;;0.10;0.10;;;;;;;;;;6195678;23;20019;-87
2022/10/27 10:07:31;;;;;;;0.10;0.10;;;;;;;;;;6243094;23;20039;-88
2022/10/27 10:10:16;;;;;;;0.10;0.10;;;;;;;;;;6195632;23;20112;-88
2022/10/27 10:12:42;;;;;;;0.10;0.10;;;;;;;;;;6246381;23;20008;-88
2022/10/27 10:15:11;;;;;;;0.10;0.10;;;;;;;;;;6169985;23;20345;-90
2022/10/27 10:17:37;;;;;;;0.10;0.10;;;;;;;;;;6219299;23;20016;-88
2022/10/27 10:20:04;;;;;;;0.10;0.10;;;;;;;;;;6169472;23;20023;-87
2022/10/27 10:22:30;;;;;;;0.10;0.10;;;;;;;;;;6193734;23;20047;-87
2022/10/27 10:24:58;;;;;;;0.10;0.10;;;;;;;;;;6244007;23;20027;-87
2022/10/27 10:27:25;;;;;;;0.10;0.10;;;;;;;;;;6194585;23;20110;-88
2022/10/27 10:29:51;;;;;;;0.10;0.10;;;;;;;;;;6195710;23;20437;-85
2022/10/27 10:32:18;;;;;;;0.10;0.10;;;;;;;;;;6244502;23;20012;-86
2022/10/27 10:34:44;;;;;;;0.15;0.15;;;;;;;;;;6194543;23;20052;-85
2022/10/27 10:37:29;;;;;;;0.10;0.10;;;;;;;;;;6169703;23;20020;-87
2022/10/27 10:39:55;;;;;;;0.17;0.17;;;;;;;;;;6219480;23;20016;-85
2022/10/27 10:42:21;;;;;;;0.20;0.20;;;;;;;;;;6170032;23;20016;-85
2022/10/27 10:44:48;;;;;;;0.10;0.10;;;;;;;;;;6193360;23;20019;-85
2022/10/27 10:47:32;;;;;;;0.10;0.10;;;;;;;;;;6193716;23;20115;-84
2022/10/27 10:49:59;;;;;;;0.10;0.10;;;;;;;;;;6193229;23;20078;-84
2022/10/27 10:52:32;;;;;;;0.10;0.10;;;;;;;;;;6168485;23;20020;-83
2022/10/27 10:54:58;;;;;;;0.10;0.10;;;;;;;;;;6193292;23;20016;-83
2022/10/27 10:57:38;;;;;;;0.10;0.10;;;;;;;;;;6192983;23;20096;-83
2022/10/27 11:00:04;;;;;;;0.20;0.20;;;;;;;;;;6168313;23;20070;-84
2022/10/27 11:02:34;;;;;;;0.10;0.10;;;;;;;;;;6193158;23;20016;-84
2022/10/27 11:05:10;;;;;;;0.20;0.20;;;;;;;;;;6193003;23;20012;-84
2022/10/27 11:07:36;;;;;;;0.22;0.20;;;;;;;;;;6193291;23;20031;-85
2022/10/27 11:10:04;;;;;;;0.10;0.10;;;;;;;;;;6168206;23;20023;-85
2022/10/27 11:12:43;;;;;;;0.10;0.10;;;;;;;;;;6192761;23;20090;-84
2022/10/27 11:15:28;;;;;;;0.10;0.10;;;;;;;;;;6192920;23;20052;-88
2022/10/27 11:17:54;;;;;;;0.20;0.20;;;;;;;;;;6217969;23;20012;-85
2022/10/27 11:20:40;;;;;;;0.10;0.10;;;;;;;;;;6192861;23;20012;-85
2022/10/27 11:23:17;;;;;;;0.20;0.20;;;;;;;;;;6217568;23;20012;-87
2022/10/27 11:25:43;;;;;;;0.25;0.25;;;;;;;;;;6193305;23;20094;-88
2022/10/27 11:28:17;;;;;;;0.10;0.10;;;;;;;;;;6217528;23;20349;-88
2022/10/27 11:30:45;;;;;;;0.10;0.10;;;;;;;;;;6167932;23;20009;-88
2022/10/27 11:33:11;;;;;;;0.30;0.30;;;;;;;;;;6165099;23;20390;-89
2022/10/27 11:35:43;;;;;;;0.10;0.10;;;;;;;;;;6188316;23;20024;-88
2022/10/27 11:38:15;;;;;;;0.10;0.10;;;;;;;;;;6187614;23;20008;-88
2022/10/27 11:40:41;;;;;;;0.20;0.20;;;;;;;;;;6212435;23;20017;-90
2022/10/27 11:43:13;;;;;;;0.10;0.10;;;;;;;;;;6187880;23;20031;-88
2022/10/27 11:45:42;;;;;;;0.20;0.20;;;;;;;;;;6186910;23;20019;-89
2022/10/27 11:48:12;;;;;;;0.10;0.10;;;;;;;;;;6187261;23;20373;-90
2022/10/27 11:50:44;;;;;;;0.10;0.10;;;;;;;;;;6212463;23;20017;-89
2022/10/27 11:53:10;;;;;;;0.20;0.20;;;;;;;;;;6187476;23;20016;-86
2022/10/27 11:55:40;;;;;;;0.10;0.10;;;;;;;;;;6212432;23;20345;-86
2022/10/27 11:58:11;;;;;;;0.10;0.10;;;;;;;;;;6212321;23;20091;-87
2022/10/27 12:00:58;;;;;;;0.10;0.10;;;;;;;;;;6187675;23;20039;-85
2022/10/27 12:03:30;;;;;;;0.10;0.10;;;;;;;;;;6212235;23;20339;-85
2022/10/27 12:06:11;;;;;;;0.20;0.20;;;;;;;;;;6187788;23;20016;-86
2022/10/27 12:08:40;;;;;;;0.10;0.10;;;;;;;;;;6187500;23;20316;-85
2022/10/27 12:11:21;;;;;;;0.10;0.10;;;;;;;;;;6187462;23;20087;-85
2022/10/27 12:13:53;;;;;;;0.10;0.10;;;;;;;;;;6187632;23;20012;-86
2022/10/27 12:16:20;;;;;;;0.10;0.10;;;;;;;;;;6187479;23;20044;-85
2022/10/27 12:19:08;;;;;;;0.40;0.40;;;;;;;;;;6212529;23;20446;-88
2022/10/27 12:21:35;;;;;;;0.10;0.10;;;;;;;;;;6187433;23;20019;-87
2022/10/27 12:24:06;;;;;;;0.10;0.10;;;;;;;;;;6188142;23;20012;-86
2022/10/27 12:26:32;;;;;;;0.10;0.10;;;;;;;;;;6214377;23;20021;-87
2022/10/27 12:28:58;;;;;;;0.15;0.15;;;;;;;;;;6189435;23;20027;-87
2022/10/27 12:31:25;;;;;;;0.10;0.10;;;;;;;;;;6214493;23;20040;-86
2022/10/27 12:34:01;;;;;;;0.10;0.10;;;;;;;;;;6214208;23;20016;-87
2022/10/27 12:36:33;;;;;;;0.52;0.52;;;;;;;;;;6189196;23;20074;-87
2022/10/27 12:39:29;;;;;;;0.13;0.13;;;;;;;;;;6189216;23;20012;-91
2022/10/27 12:41:55;;;;;;;0.10;0.10;;;;;;;;;;6112021;23;20026;-88
2022/10/27 12:44:31;;;;;;;0.10;0.10;;;;;;;;;;6189143;23;20374;-89
2022/10/27 12:47:03;;;;;;;0.10;0.10;;;;;;;;;;6189095;23;20333;-89
2022/10/27 12:49:29;;;;;;;;;;;;;;;;;;6189756;23;20024;-89
2022/10/27 12:51:55;;;;;;;0.10;0.10;;;;;;;;;;6189160;23;19966;-89
2022/10/27 12:54:31;;;;;;;0.10;0.10;;;;;;;;;;6189535;23;20319;-90
2022/10/27 12:57:06;;;;;;;0.10;0.10;;;;;;;;;;6189051;23;20063;-91
2022/10/27 12:59:35;;;;;;;0.10;0.10;;;;;;;;;;6189257;23;20016;-89
2022/10/27 13:02:08;;;;;;;0.20;0.20;;;;;;;;;;6189315;23;20016;-88
2022/10/27 13:04:55;;;;;;;0.10;0.10;;;;;;;;;;6188915;23;20013;-87
2022/10/27 13:07:36;;;;;;;0.10;0.10;;;;;;;;;;6164156;23;20341;-88
2022/10/27 13:10:02;;;;;;;0.10;0.10;;;;;;;;;;6188987;23;20012;-88
2022/10/27 13:12:46;;;;;;;0.10;0.10;;;;;;;;;;6186992;23;20064;-87
2022/10/27 13:15:34;;;;;;;0.10;0.10;;;;;;;;;;6188865;23;20079;-88
2022/10/27 13:18:18;;;;;;;0.10;0.10;;;;;;;;;;6188644;23;20067;-88
2022/10/27 13:21:03;;;;;;;0.10;0.10;;;;;;;;;;6188842;23;20048;-88
2022/10/27 13:23:52;;;;;;;0.10;0.10;;;;;;;;;;6188770;23;20024;-88
2022/10/27 13:26:19;;;;;;;0.15;0.15;;;;;;;;;;6155476;23;20012;-88
2022/10/27 13:28:56;;;;;;;0.10;0.10;;;;;;;;;;6188911;23;20008;-87
2022/10/27 13:31:22;;;;;;;0.10;0.10;;;;;;;;;;6188817;23;20013;-87
2022/10/27 13:34:01;;;;;;;0.10;0.10;;;;;;;;;;6188609;23;20024;-88
2022/10/27 13:36:28;;;;;;;0.10;0.10;;;;;;;;;;6213343;23;20020;-88
2022/10/27 13:39:09;;;;;;;0.10;0.10;;;;;;;;;;6213687;23;20013;-91
2022/10/27 13:41:51;;;;;;;0.10;0.10;;;;;;;;;;6188619;23;20024;-90
2022/10/27 13:44:27;;;;;;;0.10;0.10;;;;;;;;;;6188430;23;20074;-90
2022/10/27 13:47:02;;;;;;;0.20;0.20;;;;;;;;;;6188676;23;20013;-89
2022/10/27 13:49:40;;;;;;;0.20;0.20;;;;;;;;;;6188523;23;20016;-88
2022/10/27 13:52:15;;;;;;;0.10;0.10;;;;;;;;;;6188594;23;20012;-88
2022/10/27 13:54:48;;;;;;;0.10;0.10;;;;;;;;;;6188750;23;20016;-89
2022/10/27 13:57:33;;;;;;;0.10;0.10;;;;;;;;;;6213484;23;20023;-89
2022/10/27 14:00:03;;;;;;;0.10;0.10;;;;;;;;;;6188424;23;20024;-89
2022/10/27 14:02:32;;;;;;;0.10;0.10;;;;;;;;;;6187929;23;20017;-89
2022/10/27 14:05:00;;;;;;;0.10;0.10;;;;;;;;;;6213429;23;20026;-90
2022/10/27 14:07:25;;;;;;;0.10;0.10;;;;;;;;;;6188206;23;20454;-90
2022/10/27 14:09:51;;;;;;;0.20;0.20;;;;;;;;;;6188980;23;20012;-89
2022/10/27 14:12:25;;;;;;;0.10;0.10;;;;;;;;;;6188419;23;20088;-88
2022/10/27 14:14:53;;;;;;;0.20;0.20;;;;;;;;;;6213306;23;20465;-89
2022/10/27 14:17:22;;;;;;;0.30;0.30;;;;;;;;;;6188605;23;20023;-88
2022/10/27 14:19:52;;;;;;;0.10;0.10;;;;;;;;;;6213173;23;20062;-88
2022/10/27 14:22:23;;;;;;;0.20;0.20;;;;;;;;;;6213358;23;20354;-88
2022/10/27 14:24:51;;;;;;;0.10;0.10;;;;;;;;;;6188265;23;20008;-88
2022/10/27 14:27:17;;;;;;;0.10;0.10;;;;;;;;;;6187992;23;20067;-88
2022/10/27 14:29:43;;;;;;;0.10;0.10;;;;;;;;;;6188357;23;20012;-90
2022/10/27 14:32:13;;;;;;;0.10;0.10;;;;;;;;;;6188068;23;20298;-89
2022/10/27 14:34:39;;;;;;;0.10;0.10;;;;;;;;;;6213295;23;20380;-89
2022/10/27 14:37:09;;;;;;;0.10;0.10;;;;;;;;;;6187967;23;20021;-90
2022/10/27 14:39:35;;;;;;;0.10;0.10;;;;;;;;;;6188475;23;20017;-89
2022/10/27 14:42:02;;;;;;;0.10;0.10;;;;;;;;;;6187909;23;20087;-89
2022/10/27 14:44:32;;;;;;;0.10;0.10;;;;;;;;;;6187067;23;20055;-90
2022/10/27 14:47:03;;;;;;;0.10;0.10;;;;;;;;;;6212419;23;20497;-88
2022/10/27 14:49:30;;;;;;;0.10;0.10;;;;;;;;;;6188892;23;20020;-88
2022/10/27 14:51:57;;;;;;;0.10;0.10;;;;;;;;;;6187684;23;20091;-89